This is the latest recevied weather packets stored in our database for station/object IW4CYE-7. If no packets are shown the sender has not sent any weather packets the latest 10 day(s).
| Time | Temp. | Humidity | Pressure | Rain* | Wind** | Luminosity | Snow |
|---|---|---|---|---|---|---|---|
| 1788104242 | 31.67° C | 52% | 1002.4 hPa | 0 mm | - | - | - |
| 1788103642 | 31.67° C | 52% | 1002.4 hPa | 0 mm | - | - | - |
| 1788103042 | 31.67° C | 52% | 1002 hPa | 0 mm | - | - | - |
| 1788102442 | 31.67° C | 53% | 1002.4 hPa | 0 mm | - | - | - |
| 1788101842 | 32.22° C | 53% | 1002 hPa | 0 mm | - | - | - |
| 1788101241 | 32.22° C | 52% | 1002 hPa | 0 mm | - | - | - |
| 1788100642 | 32.22° C | 54% | 1002 hPa | 0 mm | - | - | - |
| 1788100041 | 32.78° C | 47% | 1002.4 hPa | 0 mm | - | - | - |
| 1788099442 | 33.89° C | 45% | 1002.4 hPa | 0 mm | - | - | - |
| 1788098841 | 33.33° C | 48% | 1002.7 hPa | 0 mm | - | - | - |
| 1788098242 | 32.78° C | 50% | 1002.7 hPa | 0 mm | - | - | - |
| 1788097641 | 33.33° C | 50% | 1002.7 hPa | 0 mm | - | - | - |
| 1788097041 | 32.22° C | 52% | 1002.7 hPa | 0 mm | - | - | - |
| 1788096441 | 32.78° C | 50% | 1002.7 hPa | 0 mm | - | - | - |
| 1788095841 | 31.67° C | 52% | 1003 hPa | 0 mm | - | - | - |
| 1788095241 | 32.22° C | 53% | 1003 hPa | 0 mm | - | - | - |
| 1788094641 | 32.22° C | 54% | 1003 hPa | 0 mm | - | - | - |
| 1788094041 | 31.67° C | 54% | 1003 hPa | 0 mm | - | - | - |
| 1788093441 | 31.67° C | 54% | 1003 hPa | 0 mm | - | - | - |
| 1788092841 | 31.67° C | 55% | 1003.4 hPa | 0 mm | - | - | - |
| 1788092241 | 31.11° C | 58% | 1003.4 hPa | 0 mm | - | - | - |
| 1788091641 | 30.56° C | 58% | 1003.4 hPa | 0 mm | - | - | - |
| 1788091041 | 30.56° C | 58% | 1003.4 hPa | 0 mm | - | - | - |
| 1788090441 | 30.56° C | 59% | 1003.4 hPa | 0 mm | - | - | - |
| 1788089841 | 31.11° C | 59% | 1003.4 hPa | 0 mm | - | - | - |
* Rain latest hour (hover to see other rain measurements)
** Current wind speed in m/s (hover to see current wind gust speed)